sensor_id;sensor_type;location;lat;lon;timestamp;pressure;altitude;pressure_sealevel;temperature;humidity
26083;BME280;13848;49.018;12.078;2023-03-31T00:00:10;97189.22;;;8.17;82.95
26083;BME280;13848;49.018;12.078;2023-03-31T00:02:37;97180.56;;;8.15;83.47
26083;BME280;13848;49.018;12.078;2023-03-31T00:05:04;97182.66;;;8.13;83.17
26083;BME280;13848;49.018;12.078;2023-03-31T00:07:30;97182.75;;;8.00;84.10
26083;BME280;13848;49.018;12.078;2023-03-31T00:09:56;97163.75;;;8.02;83.67
26083;BME280;13848;49.018;12.078;2023-03-31T00:12:22;97161.06;;;8.02;84.01
26083;BME280;13848;49.018;12.078;2023-03-31T00:14:48;97169.53;;;7.98;83.52
26083;BME280;13848;49.018;12.078;2023-03-31T00:17:14;97174.69;;;8.00;83.47
26083;BME280;13848;49.018;12.078;2023-03-31T00:19:41;97159.22;;;8.02;83.44
26083;BME280;13848;49.018;12.078;2023-03-31T00:22:07;97174.16;;;7.91;83.84
26083;BME280;13848;49.018;12.078;2023-03-31T00:24:34;97175.41;;;7.89;83.69
26083;BME280;13848;49.018;12.078;2023-03-31T00:27:01;97176.94;;;7.78;83.83
26083;BME280;13848;49.018;12.078;2023-03-31T00:29:28;97176.09;;;7.78;83.89
26083;BME280;13848;49.018;12.078;2023-03-31T00:31:54;97170.13;;;7.76;83.50
26083;BME280;13848;49.018;12.078;2023-03-31T00:34:20;97158.75;;;7.80;83.65
26083;BME280;13848;49.018;12.078;2023-03-31T00:36:47;97162.47;;;7.79;83.52
26083;BME280;13848;49.018;12.078;2023-03-31T00:39:15;97162.06;;;7.76;83.44
26083;BME280;13848;49.018;12.078;2023-03-31T00:41:42;97156.53;;;7.70;83.77
26083;BME280;13848;49.018;12.078;2023-03-31T00:44:10;97150.16;;;7.71;83.81
26083;BME280;13848;49.018;12.078;2023-03-31T00:46:41;97137.53;;;7.72;83.63
26083;BME280;13848;49.018;12.078;2023-03-31T00:49:14;97134.56;;;7.55;83.64
26083;BME280;13848;49.018;12.078;2023-03-31T00:51:41;97134.09;;;7.58;84.41
26083;BME280;13848;49.018;12.078;2023-03-31T00:54:09;97131.00;;;7.61;84.49
26083;BME280;13848;49.018;12.078;2023-03-31T00:56:38;97139.88;;;7.62;83.93
26083;BME280;13848;49.018;12.078;2023-03-31T00:59:08;97134.09;;;7.58;83.95
26083;BME280;13848;49.018;12.078;2023-03-31T01:01:38;97128.91;;;7.63;84.16
26083;BME280;13848;49.018;12.078;2023-03-31T01:04:06;97128.50;;;7.66;83.76
26083;BME280;13848;49.018;12.078;2023-03-31T01:06:32;97118.25;;;7.57;83.52
26083;BME280;13848;49.018;12.078;2023-03-31T01:08:59;97107.34;;;7.52;83.72
26083;BME280;13848;49.018;12.078;2023-03-31T01:11:29;97098.75;;;7.43;84.31
26083;BME280;13848;49.018;12.078;2023-03-31T01:13:55;97102.88;;;7.39;83.59
26083;BME280;13848;49.018;12.078;2023-03-31T01:16:21;97098.38;;;7.33;84.27
26083;BME280;13848;49.018;12.078;2023-03-31T01:18:47;97095.28;;;7.29;85.69
26083;BME280;13848;49.018;12.078;2023-03-31T01:34:05;97080.47;;;7.27;84.22
26083;BME280;13848;49.018;12.078;2023-03-31T01:37:01;97072.03;;;7.23;84.16
26083;BME280;13848;49.018;12.078;2023-03-31T01:39:53;97067.75;;;7.15;84.59
26083;BME280;13848;49.018;12.078;2023-03-31T01:42:28;97060.94;;;7.19;85.58
26083;BME280;13848;49.018;12.078;2023-03-31T01:45:04;97060.53;;;7.16;85.09
26083;BME280;13848;49.018;12.078;2023-03-31T01:47:36;97061.53;;;7.22;85.81
26083;BME280;13848;49.018;12.078;2023-03-31T01:50:05;97061.16;;;7.11;86.33
26083;BME280;13848;49.018;12.078;2023-03-31T01:52:37;97054.63;;;7.01;87.13
26083;BME280;13848;49.018;12.078;2023-03-31T01:55:09;97050.50;;;7.05;86.84
26083;BME280;13848;49.018;12.078;2023-03-31T01:57:38;97042.41;;;7.11;86.30
26083;BME280;13848;49.018;12.078;2023-03-31T02:00:08;97045.84;;;7.25;85.93
26083;BME280;13848;49.018;12.078;2023-03-31T02:02:38;97040.03;;;7.28;85.69
26083;BME280;13848;49.018;12.078;2023-03-31T02:05:09;97033.09;;;7.20;85.82
26083;BME280;13848;49.018;12.078;2023-03-31T02:07:40;97026.50;;;7.16;85.91
26083;BME280;13848;49.018;12.078;2023-03-31T02:10:10;97028.81;;;7.06;86.02
26083;BME280;13848;49.018;12.078;2023-03-31T02:12:39;97040.59;;;7.05;87.08
26083;BME280;13848;49.018;12.078;2023-03-31T02:15:09;97046.34;;;7.09;86.67
26083;BME280;13848;49.018;12.078;2023-03-31T02:17:37;97030.72;;;6.99;87.05
26083;BME280;13848;49.018;12.078;2023-03-31T02:20:07;97028.09;;;6.92;87.54
26083;BME280;13848;49.018;12.078;2023-03-31T02:22:37;97017.59;;;6.91;87.85
26083;BME280;13848;49.018;12.078;2023-03-31T02:25:07;97009.56;;;6.91;87.91
26083;BME280;13848;49.018;12.078;2023-03-31T02:27:38;97013.97;;;6.72;88.53
26083;BME280;13848;49.018;12.078;2023-03-31T02:30:05;97021.84;;;6.60;89.42
26083;BME280;13848;49.018;12.078;2023-03-31T02:32:36;97013.00;;;6.60;90.13
26083;BME280;13848;49.018;12.078;2023-03-31T02:35:03;97011.75;;;6.62;90.28
26083;BME280;13848;49.018;12.078;2023-03-31T02:37:29;97000.41;;;6.60;90.58
26083;BME280;13848;49.018;12.078;2023-03-31T02:39:58;97002.28;;;6.60;90.42
26083;BME280;13848;49.018;12.078;2023-03-31T02:42:24;96998.28;;;6.76;90.22
26083;BME280;13848;49.018;12.078;2023-03-31T02:44:52;96987.50;;;6.89;89.87
26083;BME280;13848;49.018;12.078;2023-03-31T02:47:20;96996.16;;;6.91;89.40
26083;BME280;13848;49.018;12.078;2023-03-31T02:49:48;96983.00;;;6.83;90.05
26083;BME280;13848;49.018;12.078;2023-03-31T02:52:40;96981.59;;;6.80;89.64
26083;BME280;13848;49.018;12.078;2023-03-31T02:55:27;96968.59;;;6.77;89.76
26083;BME280;13848;49.018;12.078;2023-03-31T02:58:10;96966.56;;;6.79;89.84
26083;BME280;13848;49.018;12.078;2023-03-31T03:00:55;96970.59;;;6.88;90.15
26083;BME280;13848;49.018;12.078;2023-03-31T03:03:31;96964.81;;;6.91;89.79
26083;BME280;13848;49.018;12.078;2023-03-31T03:06:06;96971.50;;;6.76;89.63
26083;BME280;13848;49.018;12.078;2023-03-31T03:08:48;96973.13;;;6.77;90.53
26083;BME280;13848;49.018;12.078;2023-03-31T03:11:20;96971.22;;;6.84;90.07
26083;BME280;13848;49.018;12.078;2023-03-31T03:13:51;96958.69;;;6.84;90.15
26083;BME280;13848;49.018;12.078;2023-03-31T03:16:22;96972.41;;;6.63;91.05
26083;BME280;13848;49.018;12.078;2023-03-31T03:18:56;96968.34;;;6.47;91.68
26083;BME280;13848;49.018;12.078;2023-03-31T03:21:22;96961.91;;;6.61;91.03
26083;BME280;13848;49.018;12.078;2023-03-31T03:23:48;96949.53;;;6.60;91.38
26083;BME280;13848;49.018;12.078;2023-03-31T03:26:14;96938.34;;;6.70;91.88
26083;BME280;13848;49.018;12.078;2023-03-31T03:28:40;96937.81;;;6.61;91.16
26083;BME280;13848;49.018;12.078;2023-03-31T03:31:06;96947.72;;;6.54;91.46
26083;BME280;13848;49.018;12.078;2023-03-31T03:33:33;96927.88;;;6.69;91.50
26083;BME280;13848;49.018;12.078;2023-03-31T03:35:59;96931.13;;;6.71;91.41
26083;BME280;13848;49.018;12.078;2023-03-31T03:38:25;96919.19;;;6.73;91.37
26083;BME280;13848;49.018;12.078;2023-03-31T03:40:52;96908.94;;;6.63;92.07
26083;BME280;13848;49.018;12.078;2023-03-31T03:43:18;96910.53;;;6.71;92.12
26083;BME280;13848;49.018;12.078;2023-03-31T03:45:46;96908.72;;;6.65;91.42
26083;BME280;13848;49.018;12.078;2023-03-31T03:48:12;96911.44;;;6.58;92.31
26083;BME280;13848;49.018;12.078;2023-03-31T03:50:39;96892.50;;;6.53;92.13
26083;BME280;13848;49.018;12.078;2023-03-31T03:53:05;96896.63;;;6.56;92.50
26083;BME280;13848;49.018;12.078;2023-03-31T03:55:31;96898.69;;;6.54;92.98
26083;BME280;13848;49.018;12.078;2023-03-31T03:57:57;96892.59;;;6.40;94.16
26083;BME280;13848;49.018;12.078;2023-03-31T04:00:24;96890.88;;;6.52;93.38
26083;BME280;13848;49.018;12.078;2023-03-31T04:02:50;96882.66;;;6.47;93.79
26083;BME280;13848;49.018;12.078;2023-03-31T04:05:16;96878.53;;;6.51;93.39
26083;BME280;13848;49.018;12.078;2023-03-31T04:07:43;96878.44;;;6.64;92.90
26083;BME280;13848;49.018;12.078;2023-03-31T04:10:09;96874.88;;;6.71;92.73
26083;BME280;13848;49.018;12.078;2023-03-31T04:12:35;96893.09;;;6.62;93.12
26083;BME280;13848;49.018;12.078;2023-03-31T04:15:01;96886.75;;;6.56;93.15
26083;BME280;13848;49.018;12.078;2023-03-31T04:17:28;96897.06;;;6.53;93.21
26083;BME280;13848;49.018;12.078;2023-03-31T04:19:54;96886.66;;;6.70;93.36
26083;BME280;13848;49.018;12.078;2023-03-31T04:22:19;96881.00;;;6.78;92.84
26083;BME280;13848;49.018;12.078;2023-03-31T04:24:47;96872.44;;;6.69;92.79
26083;BME280;13848;49.018;12.078;2023-03-31T04:27:13;96860.63;;;6.77;92.84
26083;BME280;13848;49.018;12.078;2023-03-31T04:29:39;96856.72;;;6.79;93.45
26083;BME280;13848;49.018;12.078;2023-03-31T04:32:05;96850.25;;;6.87;93.18
26083;BME280;13848;49.018;12.078;2023-03-31T04:34:31;96846.09;;;6.91;91.93
26083;BME280;13848;49.018;12.078;2023-03-31T04:36:57;96845.16;;;7.04;91.92
26083;BME280;13848;49.018;12.078;2023-03-31T04:39:22;96842.56;;;7.15;91.45
26083;BME280;13848;49.018;12.078;2023-03-31T04:41:50;96836.34;;;7.22;91.22
26083;BME280;13848;49.018;12.078;2023-03-31T04:44:16;96833.41;;;7.23;90.78
26083;BME280;13848;49.018;12.078;2023-03-31T04:46:42;96827.81;;;7.25;91.13
26083;BME280;13848;49.018;12.078;2023-03-31T04:49:07;96825.59;;;7.22;91.17
26083;BME280;13848;49.018;12.078;2023-03-31T04:51:33;96819.44;;;7.21;91.33
26083;BME280;13848;49.018;12.078;2023-03-31T04:53:59;96821.44;;;7.26;91.27
26083;BME280;13848;49.018;12.078;2023-03-31T04:56:25;96826.44;;;7.22;91.47
26083;BME280;13848;49.018;12.078;2023-03-31T04:58:53;96819.78;;;7.25;90.91
26083;BME280;13848;49.018;12.078;2023-03-31T05:01:19;96817.41;;;7.16;91.59
26083;BME280;13848;49.018;12.078;2023-03-31T05:03:45;96815.69;;;7.22;90.92
26083;BME280;13848;49.018;12.078;2023-03-31T05:06:11;96810.34;;;7.22;91.25
26083;BME280;13848;49.018;12.078;2023-03-31T05:08:37;96813.84;;;7.23;91.61
26083;BME280;13848;49.018;12.078;2023-03-31T05:11:03;96801.63;;;7.27;91.23
26083;BME280;13848;49.018;12.078;2023-03-31T05:13:29;96785.97;;;7.24;91.51
26083;BME280;13848;49.018;12.078;2023-03-31T05:15:56;96785.16;;;7.23;91.67
26083;BME280;13848;49.018;12.078;2023-03-31T05:18:22;96775.34;;;7.17;91.43
26083;BME280;13848;49.018;12.078;2023-03-31T05:20:48;96767.94;;;7.12;91.76
26083;BME280;13848;49.018;12.078;2023-03-31T05:23:14;96750.69;;;7.08;92.24
26083;BME280;13848;49.018;12.078;2023-03-31T05:25:40;96744.13;;;7.04;92.49
26083;BME280;13848;49.018;12.078;2023-03-31T05:28:06;96726.09;;;6.93;92.93
26083;BME280;13848;49.018;12.078;2023-03-31T05:30:32;96715.84;;;6.90;92.60
26083;BME280;13848;49.018;12.078;2023-03-31T05:33:00;96714.03;;;6.84;93.09
26083;BME280;13848;49.018;12.078;2023-03-31T05:35:26;96707.66;;;6.85;94.29
26083;BME280;13848;49.018;12.078;2023-03-31T05:37:51;96709.13;;;6.99;93.82
26083;BME280;13848;49.018;12.078;2023-03-31T05:40:17;96713.25;;;7.02;93.93
26083;BME280;13848;49.018;12.078;2023-03-31T05:42:43;96704.50;;;7.06;93.32
26083;BME280;13848;49.018;12.078;2023-03-31T05:45:09;96691.28;;;7.11;92.79
26083;BME280;13848;49.018;12.078;2023-03-31T05:47:35;96697.91;;;7.09;93.09
26083;BME280;13848;49.018;12.078;2023-03-31T05:50:03;96699.94;;;7.13;92.78
26083;BME280;13848;49.018;12.078;2023-03-31T05:52:29;96692.22;;;7.17;92.96
26083;BME280;13848;49.018;12.078;2023-03-31T05:54:55;96678.16;;;7.22;92.80
26083;BME280;13848;49.018;12.078;2023-03-31T05:57:21;96680.69;;;7.16;92.75
26083;BME280;13848;49.018;12.078;2023-03-31T05:59:47;96671.47;;;7.12;93.23
26083;BME280;13848;49.018;12.078;2023-03-31T06:02:13;96680.53;;;7.11;93.21
26083;BME280;13848;49.018;12.078;2023-03-31T06:04:39;96671.53;;;7.24;93.19
26083;BME280;13848;49.018;12.078;2023-03-31T06:07:06;96670.63;;;7.30;92.74
26083;BME280;13848;49.018;12.078;2023-03-31T06:09:32;96658.13;;;7.24;92.83
26083;BME280;13848;49.018;12.078;2023-03-31T06:11:58;96653.47;;;7.19;93.29
26083;BME280;13848;49.018;12.078;2023-03-31T06:14:24;96649.13;;;7.18;93.63
26083;BME280;13848;49.018;12.078;2023-03-31T06:16:51;96641.69;;;7.20;93.95
26083;BME280;13848;49.018;12.078;2023-03-31T06:19:17;96638.56;;;7.05;94.75
26083;BME280;13848;49.018;12.078;2023-03-31T06:21:44;96634.75;;;7.13;94.82
26083;BME280;13848;49.018;12.078;2023-03-31T06:24:12;96633.78;;;7.26;93.82
26083;BME280;13848;49.018;12.078;2023-03-31T06:26:38;96624.78;;;7.20;94.37
26083;BME280;13848;49.018;12.078;2023-03-31T06:29:04;96615.16;;;7.31;93.43
26083;BME280;13848;49.018;12.078;2023-03-31T06:31:30;96613.34;;;7.25;94.06
26083;BME280;13848;49.018;12.078;2023-03-31T06:33:56;96609.66;;;7.26;94.14
26083;BME280;13848;49.018;12.078;2023-03-31T06:36:22;96606.06;;;7.32;93.99
26083;BME280;13848;49.018;12.078;2023-03-31T06:38:48;96611.44;;;7.32;94.08
26083;BME280;13848;49.018;12.078;2023-03-31T06:41:17;96594.44;;;7.38;94.12
26083;BME280;13848;49.018;12.078;2023-03-31T06:43:43;96594.31;;;7.44;93.51
26083;BME280;13848;49.018;12.078;2023-03-31T06:46:09;96596.44;;;7.42;93.66
26083;BME280;13848;49.018;12.078;2023-03-31T06:48:35;96605.06;;;7.44;93.73
26083;BME280;13848;49.018;12.078;2023-03-31T06:51:03;96610.66;;;7.43;94.44
26083;BME280;13848;49.018;12.078;2023-03-31T06:53:30;96614.25;;;7.37;94.48
26083;BME280;13848;49.018;12.078;2023-03-31T06:55:56;96600.94;;;7.42;94.39
26083;BME280;13848;49.018;12.078;2023-03-31T06:58:23;96581.16;;;7.43;94.64
26083;BME280;13848;49.018;12.078;2023-03-31T07:00:50;96580.81;;;7.51;94.71
26083;BME280;13848;49.018;12.078;2023-03-31T07:03:16;96579.31;;;7.55;94.30
26083;BME280;13848;49.018;12.078;2023-03-31T07:05:42;96579.31;;;7.55;93.68
26083;BME280;13848;49.018;12.078;2023-03-31T07:08:12;96574.16;;;7.54;94.01
26083;BME280;13848;49.018;12.078;2023-03-31T07:10:38;96577.56;;;7.49;94.60
26083;BME280;13848;49.018;12.078;2023-03-31T07:13:04;96572.63;;;7.46;95.29
26083;BME280;13848;49.018;12.078;2023-03-31T07:15:31;96567.88;;;7.48;95.60
26083;BME280;13848;49.018;12.078;2023-03-31T07:17:57;96571.59;;;7.47;95.20
26083;BME280;13848;49.018;12.078;2023-03-31T07:20:23;96569.41;;;7.56;94.87
26083;BME280;13848;49.018;12.078;2023-03-31T07:22:49;96571.84;;;7.57;94.70
26083;BME280;13848;49.018;12.078;2023-03-31T07:25:16;96578.13;;;7.51;95.48
26083;BME280;13848;49.018;12.078;2023-03-31T07:27:43;96582.31;;;7.47;95.68
26083;BME280;13848;49.018;12.078;2023-03-31T07:30:12;96593.03;;;7.47;95.82
26083;BME280;13848;49.018;12.078;2023-03-31T07:32:40;96590.22;;;7.42;96.11
26083;BME280;13848;49.018;12.078;2023-03-31T07:35:06;96605.81;;;7.33;96.89
26083;BME280;13848;49.018;12.078;2023-03-31T07:37:34;96603.06;;;7.40;96.84
26083;BME280;13848;49.018;12.078;2023-03-31T07:40:00;96611.94;;;7.52;96.48
26083;BME280;13848;49.018;12.078;2023-03-31T07:42:26;96611.59;;;7.49;97.14
26083;BME280;13848;49.018;12.078;2023-03-31T07:44:52;96599.81;;;7.50;97.19
26083;BME280;13848;49.018;12.078;2023-03-31T07:47:18;96593.41;;;7.51;96.76
26083;BME280;13848;49.018;12.078;2023-03-31T07:49:45;96609.53;;;7.62;96.58
26083;BME280;13848;49.018;12.078;2023-03-31T07:52:11;96620.28;;;7.74;95.75
26083;BME280;13848;49.018;12.078;2023-03-31T07:54:37;96612.28;;;7.86;95.25
26083;BME280;13848;49.018;12.078;2023-03-31T07:57:03;96611.59;;;7.90;94.92
26083;BME280;13848;49.018;12.078;2023-03-31T07:59:29;96617.66;;;7.97;94.79
26083;BME280;13848;49.018;12.078;2023-03-31T08:01:55;96623.25;;;7.96;94.88
26083;BME280;13848;49.018;12.078;2023-03-31T08:04:21;96620.28;;;7.74;nan
26083;BME280;13848;49.018;12.078;2023-03-31T08:06:49;96612.03;;;7.87;95.73
26083;BME280;13848;49.018;12.078;2023-03-31T08:09:15;96606.78;;;7.92;95.71
26083;BME280;13848;49.018;12.078;2023-03-31T08:11:41;96592.09;;;7.83;96.10
26083;BME280;13848;49.018;12.078;2023-03-31T08:14:07;96605.03;;;7.86;96.39
26083;BME280;13848;49.018;12.078;2023-03-31T08:16:33;96600.84;;;7.90;96.09
26083;BME280;13848;49.018;12.078;2023-03-31T08:18:59;96589.97;;;7.85;96.60
26083;BME280;13848;49.018;12.078;2023-03-31T08:21:26;96587.31;;;7.85;96.19
26083;BME280;13848;49.018;12.078;2023-03-31T08:23:54;96572.03;;;7.97;95.89
26083;BME280;13848;49.018;12.078;2023-03-31T08:26:20;96567.34;;;8.05;95.66
26083;BME280;13848;49.018;12.078;2023-03-31T08:28:46;96560.94;;;7.94;96.28
26083;BME280;13848;49.018;12.078;2023-03-31T08:31:12;96545.53;;;8.01;95.87
26083;BME280;13848;49.018;12.078;2023-03-31T08:33:38;96535.13;;;7.81;97.45
26083;BME280;13848;49.018;12.078;2023-03-31T08:36:05;96533.63;;;7.97;96.74
26083;BME280;13848;49.018;12.078;2023-03-31T08:38:31;96514.97;;;8.02;96.45
26083;BME280;13848;49.018;12.078;2023-03-31T08:41:00;96490.56;;;7.92;96.76
26083;BME280;13848;49.018;12.078;2023-03-31T08:43:29;96469.09;;;7.92;97.05
26083;BME280;13848;49.018;12.078;2023-03-31T08:45:58;96452.19;;;8.03;96.81
26083;BME280;13848;49.018;12.078;2023-03-31T08:48:27;96453.81;;;8.04;96.71
26083;BME280;13848;49.018;12.078;2023-03-31T08:50:57;96444.03;;;7.86;97.96
26083;BME280;13848;49.018;12.078;2023-03-31T08:53:27;96448.69;;;7.79;98.46
26083;BME280;13848;49.018;12.078;2023-03-31T08:55:55;96456.88;;;7.72;98.96
26083;BME280;13848;49.018;12.078;2023-03-31T08:58:32;96463.06;;;7.73;99.00
26083;BME280;13848;49.018;12.078;2023-03-31T09:01:04;96469.00;;;7.75;98.73
26083;BME280;13848;49.018;12.078;2023-03-31T09:03:41;96472.38;;;7.82;98.84
26083;BME280;13848;49.018;12.078;2023-03-31T09:06:13;96480.41;;;7.94;98.61
26083;BME280;13848;49.018;12.078;2023-03-31T09:08:41;96509.59;;;7.79;98.60
26083;BME280;13848;49.018;12.078;2023-03-31T09:11:24;96533.41;;;7.87;98.62
26083;BME280;13848;49.018;12.078;2023-03-31T09:14:09;96535.72;;;7.71;98.79
26083;BME280;13848;49.018;12.078;2023-03-31T09:16:39;96565.34;;;7.77;98.55
26083;BME280;13848;49.018;12.078;2023-03-31T09:19:12;96570.72;;;8.00;97.92
26083;BME280;13848;49.018;12.078;2023-03-31T09:21:43;96582.88;;;8.14;97.19
26083;BME280;13848;49.018;12.078;2023-03-31T09:24:13;96590.38;;;8.24;96.80
26083;BME280;13848;49.018;12.078;2023-03-31T09:26:43;96498.75;;;8.09;98.12
26083;BME280;13848;49.018;12.078;2023-03-31T09:29:15;96477.81;;;8.22;98.18
26083;BME280;13848;49.018;12.078;2023-03-31T09:31:42;96492.88;;;8.47;98.71
26083;BME280;13848;49.018;12.078;2023-03-31T09:34:12;96457.56;;;8.55;98.68
26083;BME280;13848;49.018;12.078;2023-03-31T09:36:39;96459.16;;;8.68;98.46
26083;BME280;13848;49.018;12.078;2023-03-31T09:39:05;96445.09;;;8.77;97.56
26083;BME280;13848;49.018;12.078;2023-03-31T09:41:31;96447.28;;;8.80;96.83
26083;BME280;13848;49.018;12.078;2023-03-31T09:43:57;96426.19;;;8.72;96.50
26083;BME280;13848;49.018;12.078;2023-03-31T09:46:28;96415.50;;;8.61;96.33
26083;BME280;13848;49.018;12.078;2023-03-31T09:48:59;96413.31;;;8.46;97.73
26083;BME280;13848;49.018;12.078;2023-03-31T09:51:28;96429.13;;;8.31;98.72
26083;BME280;13848;49.018;12.078;2023-03-31T09:53:57;96435.19;;;8.38;99.40
26083;BME280;13848;49.018;12.078;2023-03-31T09:56:44;96422.28;;;8.51;98.98
26083;BME280;13848;49.018;12.078;2023-03-31T09:59:14;96424.94;;;8.63;99.21
26083;BME280;13848;49.018;12.078;2023-03-31T10:01:43;96424.81;;;8.87;99.12
26083;BME280;13848;49.018;12.078;2023-03-31T10:04:09;96422.00;;;8.93;98.86
26083;BME280;13848;49.018;12.078;2023-03-31T10:06:41;96414.75;;;8.94;99.42
26083;BME280;13848;49.018;12.078;2023-03-31T10:09:09;96413.38;;;9.08;99.24
26083;BME280;13848;49.018;12.078;2023-03-31T10:11:36;96408.25;;;9.23;99.22
26083;BME280;13848;49.018;12.078;2023-03-31T10:14:04;96404.56;;;9.85;99.41
26083;BME280;13848;49.018;12.078;2023-03-31T10:16:33;96399.91;;;10.63;97.80
26083;BME280;13848;49.018;12.078;2023-03-31T10:19:12;96394.44;;;10.80;92.89
26083;BME280;13848;49.018;12.078;2023-03-31T10:21:44;96375.84;;;10.83;92.99
26083;BME280;13848;49.018;12.078;2023-03-31T10:24:10;96378.59;;;10.88;93.10
26083;BME280;13848;49.018;12.078;2023-03-31T10:26:37;96380.19;;;11.16;91.84
26083;BME280;13848;49.018;12.078;2023-03-31T10:29:09;96376.81;;;11.31;91.80
26083;BME280;13848;49.018;12.078;2023-03-31T10:31:37;96380.97;;;11.49;91.14
26083;BME280;13848;49.018;12.078;2023-03-31T10:34:05;96360.75;;;11.52;91.59
26083;BME280;13848;49.018;12.078;2023-03-31T10:36:33;96349.28;;;12.34;90.24
26083;BME280;13848;49.018;12.078;2023-03-31T10:39:04;96356.44;;;11.98;85.85
26083;BME280;13848;49.018;12.078;2023-03-31T10:41:30;96361.09;;;12.08;87.39
26083;BME280;13848;49.018;12.078;2023-03-31T10:43:58;96348.88;;;12.00;83.34
26083;BME280;13848;49.018;12.078;2023-03-31T10:46:39;96366.69;;;11.54;83.34
26083;BME280;13848;49.018;12.078;2023-03-31T10:49:13;96328.50;;;11.77;83.25
26083;BME280;13848;49.018;12.078;2023-03-31T10:51:48;96317.34;;;12.21;82.43
26083;BME280;13848;49.018;12.078;2023-03-31T10:54:16;96312.56;;;12.54;81.99
26083;BME280;13848;49.018;12.078;2023-03-31T10:56:45;96318.72;;;12.29;80.12
26083;BME280;13848;49.018;12.078;2023-03-31T10:59:29;96321.75;;;12.47;81.54
26083;BME280;13848;49.018;12.078;2023-03-31T11:02:14;96313.31;;;12.23;79.73
26083;BME280;13848;49.018;12.078;2023-03-31T11:04:46;96317.41;;;12.41;78.56
26083;BME280;13848;49.018;12.078;2023-03-31T11:07:34;96320.59;;;12.23;77.90
26083;BME280;13848;49.018;12.078;2023-03-31T11:10:19;96314.13;;;12.29;77.76
26083;BME280;13848;49.018;12.078;2023-03-31T11:12:50;96312.56;;;12.48;77.68
26083;BME280;13848;49.018;12.078;2023-03-31T11:15:21;96301.25;;;12.77;77.54
26083;BME280;13848;49.018;12.078;2023-03-31T11:18:05;96306.38;;;12.78;76.01
26083;BME280;13848;49.018;12.078;2023-03-31T11:20:40;96308.25;;;12.63;74.93
26083;BME280;13848;49.018;12.078;2023-03-31T11:23:17;96295.03;;;12.76;74.18
26083;BME280;13848;49.018;12.078;2023-03-31T11:25:51;96276.63;;;12.89;74.59
26083;BME280;13848;49.018;12.078;2023-03-31T11:28:35;96254.16;;;13.14;73.98
26083;BME280;13848;49.018;12.078;2023-03-31T11:37:02;96258.88;;;14.77;74.33
26083;BME280;13848;49.018;12.078;2023-03-31T11:39:43;96257.63;;;14.64;67.51
26083;BME280;13848;49.018;12.078;2023-03-31T11:42:13;96242.41;;;14.19;65.71
26083;BME280;13848;49.018;12.078;2023-03-31T11:44:44;96238.47;;;14.50;66.89
26083;BME280;13848;49.018;12.078;2023-03-31T11:47:15;96238.16;;;15.20;67.11
26083;BME280;13848;49.018;12.078;2023-03-31T11:49:45;96237.41;;;15.38;66.87
26083;BME280;13848;49.018;12.078;2023-03-31T11:52:14;96230.63;;;15.36;65.26
26083;BME280;13848;49.018;12.078;2023-03-31T11:54:49;96249.81;;;14.92;62.32
26083;BME280;13848;49.018;12.078;2023-03-31T11:57:21;96242.63;;;14.72;62.92
26083;BME280;13848;49.018;12.078;2023-03-31T11:59:53;96219.00;;;14.38;62.91
26083;BME280;13848;49.018;12.078;2023-03-31T12:02:27;96217.25;;;14.13;63.35
26083;BME280;13848;49.018;12.078;2023-03-31T12:04:57;96201.84;;;14.48;64.29
26083;BME280;13848;49.018;12.078;2023-03-31T12:07:27;96181.69;;;15.17;64.36
26083;BME280;13848;49.018;12.078;2023-03-31T12:09:59;96185.38;;;14.73;60.31
26083;BME280;13848;49.018;12.078;2023-03-31T12:12:29;96180.09;;;14.58;62.44
26083;BME280;13848;49.018;12.078;2023-03-31T12:15:03;96178.09;;;14.69;61.11
26083;BME280;13848;49.018;12.078;2023-03-31T12:17:31;96170.28;;;15.20;62.28
26083;BME280;13848;49.018;12.078;2023-03-31T12:20:01;96151.19;;;15.49;60.38
26083;BME280;13848;49.018;12.078;2023-03-31T12:22:30;96149.84;;;15.70;61.78
26083;BME280;13848;49.018;12.078;2023-03-31T12:24:59;96151.38;;;15.77;59.92
26083;BME280;13848;49.018;12.078;2023-03-31T12:27:28;96141.84;;;15.98;58.50
26083;BME280;13848;49.018;12.078;2023-03-31T12:29:59;96138.84;;;15.81;57.58
26083;BME280;13848;49.018;12.078;2023-03-31T12:32:29;96125.75;;;16.20;58.65
26083;BME280;13848;49.018;12.078;2023-03-31T12:34:58;96122.53;;;16.51;55.92
26083;BME280;13848;49.018;12.078;2023-03-31T12:40:51;96092.00;;;16.21;55.02
26083;BME280;13848;49.018;12.078;2023-03-31T12:43:55;96076.78;;;16.99;56.61
26083;BME280;13848;49.018;12.078;2023-03-31T12:49:33;96089.59;;;16.99;56.14
26083;BME280;13848;49.018;12.078;2023-03-31T12:52:06;96102.34;;;16.38;56.67
26083;BME280;13848;49.018;12.078;2023-03-31T12:54:46;96109.09;;;16.08;58.18
26083;BME280;13848;49.018;12.078;2023-03-31T12:57:22;96100.94;;;15.70;60.17
26083;BME280;13848;49.018;12.078;2023-03-31T13:00:18;96095.00;;;15.44;61.35
26083;BME280;13848;49.018;12.078;2023-03-31T13:02:44;96090.47;;;15.16;60.89
26083;BME280;13848;49.018;12.078;2023-03-31T13:05:44;96098.94;;;15.14;61.02
26083;BME280;13848;49.018;12.078;2023-03-31T13:08:10;96086.03;;;14.77;59.19
26083;BME280;13848;49.018;12.078;2023-03-31T13:10:57;96078.09;;;15.29;59.73
26083;BME280;13848;49.018;12.078;2023-03-31T13:13:25;96076.03;;;15.63;58.10
26083;BME280;13848;49.018;12.078;2023-03-31T13:15:53;96072.06;;;15.75;57.34
26083;BME280;13848;49.018;12.078;2023-03-31T13:18:20;96063.06;;;16.44;57.27
26083;BME280;13848;49.018;12.078;2023-03-31T13:20:57;96066.41;;;16.55;57.94
26083;BME280;13848;49.018;12.078;2023-03-31T13:23:24;96053.03;;;16.59;56.24
26083;BME280;13848;49.018;12.078;2023-03-31T13:25:50;96055.22;;;16.43;55.39
26083;BME280;13848;49.018;12.078;2023-03-31T13:28:26;96050.19;;;16.50;53.75
26083;BME280;13848;49.018;12.078;2023-03-31T13:30:55;96047.13;;;16.05;52.69
26083;BME280;13848;49.018;12.078;2023-03-31T13:33:40;96054.81;;;15.84;54.04